sensor_id;sensor_type;location;lat;lon;timestamp;pressure;altitude;pressure_sealevel;temperature;humidity
28628;BME280;15815;46.760;19.604;2023-02-12T00:02:22;101534.59;;;3.70;68.62
28628;BME280;15815;46.760;19.604;2023-02-12T00:04:48;101509.75;;;3.57;68.85
28628;BME280;15815;46.760;19.604;2023-02-12T00:07:13;101530.84;;;3.66;68.94
28628;BME280;15815;46.760;19.604;2023-02-12T00:09:40;101531.97;;;3.65;69.20
28628;BME280;15815;46.760;19.604;2023-02-12T00:12:06;101493.88;;;3.40;69.94
28628;BME280;15815;46.760;19.604;2023-02-12T00:14:31;101505.81;;;3.40;69.18
28628;BME280;15815;46.760;19.604;2023-02-12T00:16:57;101504.69;;;3.41;69.74
28628;BME280;15815;46.760;19.604;2023-02-12T00:19:22;101534.09;;;3.51;69.81
28628;BME280;15815;46.760;19.604;2023-02-12T00:21:48;101539.50;;;3.48;70.54
28628;BME280;15815;46.760;19.604;2023-02-12T00:24:13;101510.22;;;3.24;70.79
28628;BME280;15815;46.760;19.604;2023-02-12T00:26:39;101505.47;;;3.16;70.87
28628;BME280;15815;46.760;19.604;2023-02-12T00:29:04;101517.09;;;3.18;71.83
28628;BME280;15815;46.760;19.604;2023-02-12T00:31:30;101528.84;;;3.24;71.49
28628;BME280;15815;46.760;19.604;2023-02-12T00:33:57;101515.63;;;3.03;71.53
28628;BME280;15815;46.760;19.604;2023-02-12T00:36:25;101547.31;;;3.20;73.27
28628;BME280;15815;46.760;19.604;2023-02-12T00:38:52;101521.97;;;3.04;72.10
28628;BME280;15815;46.760;19.604;2023-02-12T00:41:20;101533.72;;;3.01;73.48
28628;BME280;15815;46.760;19.604;2023-02-12T00:43:48;101524.72;;;2.87;73.94
28628;BME280;15815;46.760;19.604;2023-02-12T00:46:14;101555.31;;;3.04;72.83
28628;BME280;15815;46.760;19.604;2023-02-12T00:48:40;101526.19;;;2.84;74.05
28628;BME280;15815;46.760;19.604;2023-02-12T00:51:06;101520.09;;;2.73;74.66
28628;BME280;15815;46.760;19.604;2023-02-12T00:53:32;101560.84;;;2.95;75.11
28628;BME280;15815;46.760;19.604;2023-02-12T00:55:58;101543.66;;;2.85;73.94
28628;BME280;15815;46.760;19.604;2023-02-12T00:58:24;101565.72;;;2.90;74.31
28628;BME280;15815;46.760;19.604;2023-02-12T01:00:49;101547.69;;;2.70;74.91
28628;BME280;15815;46.760;19.604;2023-02-12T01:03:16;101569.44;;;2.76;75.57
28628;BME280;15815;46.760;19.604;2023-02-12T01:05:42;101538.50;;;2.52;75.63
28628;BME280;15815;46.760;19.604;2023-02-12T01:08:11;101566.44;;;2.56;76.06
28628;BME280;15815;46.760;19.604;2023-02-12T01:10:36;101559.06;;;2.51;77.01
28628;BME280;15815;46.760;19.604;2023-02-12T01:13:05;101562.34;;;2.53;77.04
28628;BME280;15815;46.760;19.604;2023-02-12T01:15:31;101562.97;;;2.50;76.60
28628;BME280;15815;46.760;19.604;2023-02-12T01:17:58;101554.88;;;2.31;78.09
28628;BME280;15815;46.760;19.604;2023-02-12T01:20:24;101563.06;;;2.36;78.40
28628;BME280;15815;46.760;19.604;2023-02-12T01:22:50;101565.88;;;2.45;78.47
28628;BME280;15815;46.760;19.604;2023-02-12T01:25:18;101561.28;;;2.40;79.12
28628;BME280;15815;46.760;19.604;2023-02-12T01:27:44;101567.50;;;2.46;77.09
28628;BME280;15815;46.760;19.604;2023-02-12T01:30:11;101551.16;;;2.36;78.65
28628;BME280;15815;46.760;19.604;2023-02-12T01:32:38;101538.41;;;2.35;77.91
28628;BME280;15815;46.760;19.604;2023-02-12T01:35:07;101543.63;;;2.36;78.06
28628;BME280;15815;46.760;19.604;2023-02-12T01:37:35;101565.44;;;2.52;78.18
28628;BME280;15815;46.760;19.604;2023-02-12T01:40:01;101557.78;;;2.57;77.73
28628;BME280;15815;46.760;19.604;2023-02-12T01:42:26;101553.50;;;2.51;79.63
28628;BME280;15815;46.760;19.604;2023-02-12T01:47:37;101538.66;;;2.47;79.72
28628;BME280;15815;46.760;19.604;2023-02-12T01:50:04;101565.38;;;2.74;78.97
28628;BME280;15815;46.760;19.604;2023-02-12T01:52:33;101565.66;;;2.72;78.85
28628;BME280;15815;46.760;19.604;2023-02-12T01:55:05;101566.03;;;2.79;78.69
28628;BME280;15815;46.760;19.604;2023-02-12T01:57:37;101562.59;;;2.83;79.94
28628;BME280;15815;46.760;19.604;2023-02-12T02:00:04;101560.47;;;2.79;81.39
28628;BME280;15815;46.760;19.604;2023-02-12T02:02:33;101548.19;;;2.72;79.81
28628;BME280;15815;46.760;19.604;2023-02-12T02:05:02;101542.47;;;2.68;79.39
28628;BME280;15815;46.760;19.604;2023-02-12T02:07:29;101563.09;;;2.85;79.21
28628;BME280;15815;46.760;19.604;2023-02-12T02:09:57;101559.19;;;2.86;79.29
28628;BME280;15815;46.760;19.604;2023-02-12T02:12:26;101530.38;;;2.64;80.19
28628;BME280;15815;46.760;19.604;2023-02-12T02:14:53;101561.13;;;2.85;79.70
28628;BME280;15815;46.760;19.604;2023-02-12T02:17:27;101552.00;;;2.85;81.41
28628;BME280;15815;46.760;19.604;2023-02-12T02:31:16;101594.00;;;3.00;80.08
28628;BME280;15815;46.760;19.604;2023-02-12T02:34:07;101600.84;;;2.94;80.39
28628;BME280;15815;46.760;19.604;2023-02-12T02:36:43;101585.28;;;2.76;79.37
28628;BME280;15815;46.760;19.604;2023-02-12T02:39:39;101574.72;;;2.47;80.13
28628;BME280;15815;46.760;19.604;2023-02-12T02:42:22;101615.09;;;2.62;80.19
28628;BME280;15815;46.760;19.604;2023-02-12T02:44:54;101616.53;;;2.51;79.41
28628;BME280;15815;46.760;19.604;2023-02-12T02:47:32;101597.63;;;2.30;80.13
28628;BME280;15815;46.760;19.604;2023-02-12T02:50:04;101611.00;;;2.28;79.91
28628;BME280;15815;46.760;19.604;2023-02-12T02:52:52;101633.16;;;2.20;80.19
28628;BME280;15815;46.760;19.604;2023-02-12T02:55:25;101622.06;;;1.97;80.35
28628;BME280;15815;46.760;19.604;2023-02-12T02:57:59;101620.25;;;1.93;79.83
28628;BME280;15815;46.760;19.604;2023-02-12T03:00:40;101615.75;;;1.83;80.45
28628;BME280;15815;46.760;19.604;2023-02-12T03:03:12;101631.13;;;1.89;80.21
28628;BME280;15815;46.760;19.604;2023-02-12T03:05:45;101600.00;;;1.70;80.75
28628;BME280;15815;46.760;19.604;2023-02-12T03:08:25;101625.38;;;1.85;81.33
28628;BME280;15815;46.760;19.604;2023-02-12T03:10:56;101605.53;;;1.70;80.59
28628;BME280;15815;46.760;19.604;2023-02-12T03:13:37;101610.56;;;1.68;81.73
28628;BME280;15815;46.760;19.604;2023-02-12T03:16:20;101616.03;;;1.59;82.19
28628;BME280;15815;46.760;19.604;2023-02-12T03:19:26;101627.59;;;1.39;82.12
28628;BME280;15815;46.760;19.604;2023-02-12T03:21:51;101626.34;;;1.31;81.18
28628;BME280;15815;46.760;19.604;2023-02-12T03:24:39;101638.47;;;1.21;85.31
28628;BME280;15815;46.760;19.604;2023-02-12T03:29:56;101649.53;;;1.35;83.02
28628;BME280;15815;46.760;19.604;2023-02-12T03:43:31;101678.88;;;1.09;84.95
28628;BME280;15815;46.760;19.604;2023-02-12T03:46:39;101662.69;;;1.02;84.30
28628;BME280;15815;46.760;19.604;2023-02-12T03:49:21;101675.63;;;0.93;83.94
28628;BME280;15815;46.760;19.604;2023-02-12T03:51:50;101686.91;;;0.83;84.34
28628;BME280;15815;46.760;19.604;2023-02-12T03:54:17;101687.97;;;0.68;83.94
28628;BME280;15815;46.760;19.604;2023-02-12T03:59:20;101677.16;;;0.53;83.53
28628;BME280;15815;46.760;19.604;2023-02-12T04:01:52;101679.38;;;0.56;82.70
28628;BME280;15815;46.760;19.604;2023-02-12T04:04:19;101696.38;;;0.63;82.61
28628;BME280;15815;46.760;19.604;2023-02-12T04:06:48;101671.50;;;0.30;82.77
28628;BME280;15815;46.760;19.604;2023-02-12T04:09:15;101678.53;;;0.23;83.11
28628;BME280;15815;46.760;19.604;2023-02-12T04:14:37;101720.69;;;0.34;82.23
28628;BME280;15815;46.760;19.604;2023-02-12T04:17:28;101721.94;;;0.22;82.90
28628;BME280;15815;46.760;19.604;2023-02-12T04:23:03;101694.13;;;-0.19;84.08
28628;BME280;15815;46.760;19.604;2023-02-12T04:26:16;101721.22;;;-0.02;85.36
28628;BME280;15815;46.760;19.604;2023-02-12T04:29:00;101726.69;;;0.03;84.83
28628;BME280;15815;46.760;19.604;2023-02-12T04:31:56;101695.91;;;-0.09;84.28
28628;BME280;15815;46.760;19.604;2023-02-12T04:37:18;101722.41;;;-0.08;83.62
28628;BME280;15815;46.760;19.604;2023-02-12T04:39:45;101723.19;;;-0.21;83.78
28628;BME280;15815;46.760;19.604;2023-02-12T04:42:13;101746.94;;;-0.20;85.37
28628;BME280;15815;46.760;19.604;2023-02-12T04:44:41;101746.69;;;-0.24;85.49
28628;BME280;15815;46.760;19.604;2023-02-12T04:47:10;101750.81;;;-0.21;85.51
28628;BME280;15815;46.760;19.604;2023-02-12T04:49:36;101734.72;;;-0.38;85.64
28628;BME280;15815;46.760;19.604;2023-02-12T04:52:02;101728.75;;;-0.45;84.24
28628;BME280;15815;46.760;19.604;2023-02-12T04:54:28;101768.31;;;-0.31;84.56
28628;BME280;15815;46.760;19.604;2023-02-12T04:56:53;101760.47;;;-0.43;85.91
28628;BME280;15815;46.760;19.604;2023-02-12T04:59:19;101755.66;;;-0.56;84.66
28628;BME280;15815;46.760;19.604;2023-02-12T05:01:46;101770.84;;;-0.53;85.03
28628;BME280;15815;46.760;19.604;2023-02-12T05:04:15;101772.22;;;-0.56;85.35
28628;BME280;15815;46.760;19.604;2023-02-12T05:06:41;101775.19;;;-0.47;84.88
28628;BME280;15815;46.760;19.604;2023-02-12T05:09:14;101753.19;;;-0.57;85.10
28628;BME280;15815;46.760;19.604;2023-02-12T05:11:40;101738.09;;;-0.65;84.76
28628;BME280;15815;46.760;19.604;2023-02-12T05:14:05;101777.13;;;-0.48;85.02
28628;BME280;15815;46.760;19.604;2023-02-12T05:16:31;101771.47;;;-0.62;85.65
28628;BME280;15815;46.760;19.604;2023-02-12T05:18:56;101772.66;;;-0.68;85.40
28628;BME280;15815;46.760;19.604;2023-02-12T05:21:22;101803.25;;;-0.64;85.38
28628;BME280;15815;46.760;19.604;2023-02-12T05:23:48;101800.31;;;-0.73;85.92
28628;BME280;15815;46.760;19.604;2023-02-12T05:26:16;101783.09;;;-0.88;85.77
28628;BME280;15815;46.760;19.604;2023-02-12T05:28:42;101801.22;;;-0.82;85.68
28628;BME280;15815;46.760;19.604;2023-02-12T05:31:10;101792.25;;;-0.93;86.33
28628;BME280;15815;46.760;19.604;2023-02-12T05:33:36;101777.72;;;-1.04;85.30
28628;BME280;15815;46.760;19.604;2023-02-12T05:36:09;101814.22;;;-0.83;85.53
28628;BME280;15815;46.760;19.604;2023-02-12T05:38:35;101804.97;;;-0.97;85.13
28628;BME280;15815;46.760;19.604;2023-02-12T05:41:10;101796.22;;;-1.04;86.39
28628;BME280;15815;46.760;19.604;2023-02-12T05:43:40;101800.63;;;-1.03;86.73
28628;BME280;15815;46.760;19.604;2023-02-12T05:46:06;101833.84;;;-0.84;86.94
28628;BME280;15815;46.760;19.604;2023-02-12T05:48:32;101796.28;;;-1.09;86.48
28628;BME280;15815;46.760;19.604;2023-02-12T05:51:10;101837.75;;;-0.90;85.89
28628;BME280;15815;46.760;19.604;2023-02-12T05:53:37;101820.84;;;-1.13;85.87
28628;BME280;15815;46.760;19.604;2023-02-12T05:56:16;101856.91;;;-0.99;85.67
28628;BME280;15815;46.760;19.604;2023-02-12T05:58:45;101858.06;;;-1.05;85.64
28628;BME280;15815;46.760;19.604;2023-02-12T06:01:15;101861.59;;;-1.00;85.00
28628;BME280;15815;46.760;19.604;2023-02-12T06:03:41;101851.78;;;-1.16;86.72
28628;BME280;15815;46.760;19.604;2023-02-12T06:06:09;101879.59;;;-1.07;86.25
28628;BME280;15815;46.760;19.604;2023-02-12T06:08:35;101871.34;;;-1.12;86.18
28628;BME280;15815;46.760;19.604;2023-02-12T06:11:02;101866.22;;;-1.24;86.45
28628;BME280;15815;46.760;19.604;2023-02-12T06:13:31;101891.44;;;-1.02;87.56
28628;BME280;15815;46.760;19.604;2023-02-12T06:15:57;101870.81;;;-1.14;87.55
28628;BME280;15815;46.760;19.604;2023-02-12T06:18:23;101906.25;;;-0.93;87.14
28628;BME280;15815;46.760;19.604;2023-02-12T06:20:51;101895.50;;;-0.94;86.16
28628;BME280;15815;46.760;19.604;2023-02-12T06:23:17;101871.25;;;-0.68;85.40
28628;BME280;15815;46.760;19.604;2023-02-12T06:25:42;101908.34;;;-0.21;85.94
28628;BME280;15815;46.760;19.604;2023-02-12T06:28:09;101881.75;;;0.07;85.52
28628;BME280;15815;46.760;19.604;2023-02-12T06:30:34;101889.34;;;0.39;84.83
28628;BME280;15815;46.760;19.604;2023-02-12T06:33:00;101899.06;;;0.74;84.36
28628;BME280;15815;46.760;19.604;2023-02-12T06:35:28;101918.25;;;1.03;83.81
28628;BME280;15815;46.760;19.604;2023-02-12T06:37:53;101925.38;;;1.41;83.06
28628;BME280;15815;46.760;19.604;2023-02-12T06:40:19;101920.13;;;1.72;83.13
28628;BME280;15815;46.760;19.604;2023-02-12T06:42:44;101924.47;;;2.20;82.39
28628;BME280;15815;46.760;19.604;2023-02-12T06:45:10;101929.38;;;2.72;81.79
28628;BME280;15815;46.760;19.604;2023-02-12T06:47:35;101925.81;;;3.30;82.05
28628;BME280;15815;46.760;19.604;2023-02-12T06:50:05;101938.78;;;3.97;81.75
28628;BME280;15815;46.760;19.604;2023-02-12T06:52:31;101919.59;;;4.35;81.45
28628;BME280;15815;46.760;19.604;2023-02-12T06:54:57;101939.00;;;4.92;81.40
28628;BME280;15815;46.760;19.604;2023-02-12T06:57:23;101921.63;;;5.38;81.91
28628;BME280;15815;46.760;19.604;2023-02-12T06:59:51;101938.41;;;5.94;81.83
28628;BME280;15815;46.760;19.604;2023-02-12T07:02:16;101947.06;;;6.09;80.68
28628;BME280;15815;46.760;19.604;2023-02-12T07:04:42;101956.50;;;6.85;80.35
28628;BME280;15815;46.760;19.604;2023-02-12T07:07:08;101941.44;;;6.18;82.34
28628;BME280;15815;46.760;19.604;2023-02-12T07:09:34;101947.50;;;6.20;83.16
28628;BME280;15815;46.760;19.604;2023-02-12T07:12:03;101956.97;;;6.66;81.64
28628;BME280;15815;46.760;19.604;2023-02-12T07:14:29;101943.38;;;7.39;78.73
28628;BME280;15815;46.760;19.604;2023-02-12T07:16:55;101947.44;;;8.07;79.50
28628;BME280;15815;46.760;19.604;2023-02-12T07:19:21;101966.16;;;8.77;75.81
28628;BME280;15815;46.760;19.604;2023-02-12T07:21:47;101951.16;;;8.12;78.11
28628;BME280;15815;46.760;19.604;2023-02-12T07:24:13;101969.03;;;9.05;78.14
28628;BME280;15815;46.760;19.604;2023-02-12T07:26:40;101961.94;;;9.35;77.62
28628;BME280;15815;46.760;19.604;2023-02-12T07:29:07;101967.69;;;8.62;82.26
28628;BME280;15815;46.760;19.604;2023-02-12T07:31:32;101969.00;;;9.17;78.27
28628;BME280;15815;46.760;19.604;2023-02-12T07:33:58;101982.16;;;7.49;75.51
28628;BME280;15815;46.760;19.604;2023-02-12T07:36:26;101981.81;;;7.30;76.88
28628;BME280;15815;46.760;19.604;2023-02-12T07:38:53;101965.53;;;9.08;74.71
28628;BME280;15815;46.760;19.604;2023-02-12T07:41:23;101983.34;;;10.27;70.76
28628;BME280;15815;46.760;19.604;2023-02-12T07:43:53;101987.84;;;11.14;72.68
28628;BME280;15815;46.760;19.604;2023-02-12T07:46:27;101982.09;;;11.26;72.40
28628;BME280;15815;46.760;19.604;2023-02-12T07:48:53;101985.13;;;10.19;74.66
28628;BME280;15815;46.760;19.604;2023-02-12T07:51:18;101988.25;;;10.02;74.38
28628;BME280;15815;46.760;19.604;2023-02-12T07:53:44;101989.75;;;9.28;74.15
28628;BME280;15815;46.760;19.604;2023-02-12T07:56:11;102000.97;;;9.28;73.11
28628;BME280;15815;46.760;19.604;2023-02-12T08:01:21;102002.88;;;9.64;70.59
28628;BME280;15815;46.760;19.604;2023-02-12T08:03:50;102005.81;;;9.55;70.31
28628;BME280;15815;46.760;19.604;2023-02-12T08:06:20;102013.09;;;8.67;67.22
28628;BME280;15815;46.760;19.604;2023-02-12T08:08:53;102023.06;;;8.53;66.91
28628;BME280;15815;46.760;19.604;2023-02-12T08:11:20;102022.78;;;8.33;69.07
28628;BME280;15815;46.760;19.604;2023-02-12T08:13:46;102033.91;;;8.09;66.40
28628;BME280;15815;46.760;19.604;2023-02-12T08:16:18;102038.91;;;7.70;68.31
28628;BME280;15815;46.760;19.604;2023-02-12T08:18:44;102022.59;;;7.52;68.01
28628;BME280;15815;46.760;19.604;2023-02-12T08:21:18;102046.69;;;7.65;69.07
28628;BME280;15815;46.760;19.604;2023-02-12T08:23:44;102049.81;;;7.84;68.62
28628;BME280;15815;46.760;19.604;2023-02-12T08:26:14;102052.84;;;7.91;68.11
28628;BME280;15815;46.760;19.604;2023-02-12T08:28:43;102036.16;;;7.83;68.00
28628;BME280;15815;46.760;19.604;2023-02-12T08:34:35;102069.78;;;6.91;71.11
28628;BME280;15815;46.760;19.604;2023-02-12T08:37:01;102053.53;;;7.13;70.86
28628;BME280;15815;46.760;19.604;2023-02-12T08:39:29;102040.59;;;7.00;71.43
28628;BME280;15815;46.760;19.604;2023-02-12T08:41:56;102079.72;;;7.30;70.71
28628;BME280;15815;46.760;19.604;2023-02-12T08:44:22;102063.97;;;7.46;70.49
28628;BME280;15815;46.760;19.604;2023-02-12T08:46:50;102080.00;;;7.58;69.87
28628;BME280;15815;46.760;19.604;2023-02-12T08:49:21;102077.47;;;7.86;69.99
28628;BME280;15815;46.760;19.604;2023-02-12T08:51:49;102074.19;;;7.84;68.88
28628;BME280;15815;46.760;19.604;2023-02-12T08:54:21;102078.97;;;8.16;69.64
28628;BME280;15815;46.760;19.604;2023-02-12T08:56:47;102080.88;;;8.24;68.39
28628;BME280;15815;46.760;19.604;2023-02-12T08:59:14;102087.69;;;8.35;68.93
28628;BME280;15815;46.760;19.604;2023-02-12T09:01:44;102082.63;;;8.29;68.38
28628;BME280;15815;46.760;19.604;2023-02-12T09:04:15;102091.78;;;8.38;67.75
28628;BME280;15815;46.760;19.604;2023-02-12T09:06:41;102079.13;;;8.32;67.75
28628;BME280;15815;46.760;19.604;2023-02-12T09:09:06;102071.31;;;8.25;67.41
28628;BME280;15815;46.760;19.604;2023-02-12T09:11:33;102088.53;;;8.48;67.67
28628;BME280;15815;46.760;19.604;2023-02-12T09:14:01;102096.88;;;8.93;66.62
28628;BME280;15815;46.760;19.604;2023-02-12T09:16:30;102093.22;;;9.82;65.46
28628;BME280;15815;46.760;19.604;2023-02-12T09:18:56;102108.16;;;10.86;63.96
28628;BME280;15815;46.760;19.604;2023-02-12T09:21:22;102104.16;;;12.07;61.71
28628;BME280;15815;46.760;19.604;2023-02-12T09:23:48;102102.38;;;13.10;61.51
28628;BME280;15815;46.760;19.604;2023-02-12T09:26:17;102102.72;;;13.88;59.77
28628;BME280;15815;46.760;19.604;2023-02-12T09:28:43;102103.59;;;14.59;58.52
28628;BME280;15815;46.760;19.604;2023-02-12T09:31:11;102115.25;;;14.95;55.55
28628;BME280;15815;46.760;19.604;2023-02-12T09:33:38;102114.69;;;15.30;53.40
28628;BME280;15815;46.760;19.604;2023-02-12T09:36:06;102115.13;;;15.94;54.38
28628;BME280;15815;46.760;19.604;2023-02-12T09:38:32;102122.56;;;16.37;52.06
28628;BME280;15815;46.760;19.604;2023-02-12T09:44:05;102126.34;;;16.88;45.00
28628;BME280;15815;46.760;19.604;2023-02-12T09:52:18;102129.97;;;17.81;46.13
28628;BME280;15815;46.760;19.604;2023-02-12T09:54:47;102141.22;;;18.13;44.63
28628;BME280;15815;46.760;19.604;2023-02-12T09:59:59;102143.31;;;18.78;42.89
28628;BME280;15815;46.760;19.604;2023-02-12T10:02:26;102140.53;;;18.71;41.95
28628;BME280;15815;46.760;19.604;2023-02-12T10:04:53;102132.88;;;18.54;40.36
28628;BME280;15815;46.760;19.604;2023-02-12T10:13:03;102155.78;;;19.51;38.17
28628;BME280;15815;46.760;19.604;2023-02-12T10:21:13;102152.53;;;19.90;36.03
28628;BME280;15815;46.760;19.604;2023-02-12T10:24:13;102168.88;;;20.20;37.62
28628;BME280;15815;46.760;19.604;2023-02-12T10:26:49;102158.50;;;20.02;36.12
28628;BME280;15815;46.760;19.604;2023-02-12T10:29:23;102162.28;;;20.26;35.49
28628;BME280;15815;46.760;19.604;2023-02-12T10:31:54;102161.69;;;19.74;34.18
28628;BME280;15815;46.760;19.604;2023-02-12T10:34:24;102150.53;;;19.87;34.27
28628;BME280;15815;46.760;19.604;2023-02-12T10:36:51;102145.41;;;19.26;34.67
28628;BME280;15815;46.760;19.604;2023-02-12T10:39:25;102141.03;;;19.11;35.04
28628;BME280;15815;46.760;19.604;2023-02-12T10:42:14;102154.28;;;19.35;33.75
28628;BME280;15815;46.760;19.604;2023-02-12T10:44:41;102149.09;;;19.68;34.00
28628;BME280;15815;46.760;19.604;2023-02-12T10:47:25;102131.03;;;18.89;33.77
28628;BME280;15815;46.760;19.604;2023-02-12T10:49:59;102155.03;;;19.39;33.88
28628;BME280;15815;46.760;19.604;2023-02-12T10:52:44;102147.66;;;19.87;33.76
28628;BME280;15815;46.760;19.604;2023-02-12T10:55:26;102154.03;;;20.01;32.25
28628;BME280;15815;46.760;19.604;2023-02-12T10:57:52;102161.66;;;20.46;32.29
28628;BME280;15815;46.760;19.604;2023-02-12T11:00:36;102161.59;;;20.15;32.12
28628;BME280;15815;46.760;19.604;2023-02-12T11:05:36;102163.19;;;20.20;32.47
28628;BME280;15815;46.760;19.604;2023-02-12T11:08:03;102164.53;;;19.29;34.68
28628;BME280;15815;46.760;19.604;2023-02-12T11:10:40;102155.09;;;20.76;32.60
28628;BME280;15815;46.760;19.604;2023-02-12T11:13:26;102151.34;;;20.52;32.11
28628;BME280;15815;46.760;19.604;2023-02-12T11:15:53;102140.91;;;20.38;32.65
28628;BME280;15815;46.760;19.604;2023-02-12T11:18:23;102147.31;;;21.03;32.27
28628;BME280;15815;46.760;19.604;2023-02-12T11:20:52;102158.38;;;20.47;31.78
28628;BME280;15815;46.760;19.604;2023-02-12T11:29:22;102167.63;;;20.58;30.68
28628;BME280;15815;46.760;19.604;2023-02-12T11:32:03;102148.22;;;20.43;30.46
28628;BME280;15815;46.760;19.604;2023-02-12T11:34:29;102158.50;;;20.94;31.09
28628;BME280;15815;46.760;19.604;2023-02-12T11:36:56;102161.13;;;21.08;30.89
28628;BME280;15815;46.760;19.604;2023-02-12T11:39:27;102154.34;;;20.72;30.53
28628;BME280;15815;46.760;19.604;2023-02-12T11:42:02;102165.19;;;20.23;31.16
28628;BME280;15815;46.760;19.604;2023-02-12T11:44:37;102170.53;;;20.51;30.90
28628;BME280;15815;46.760;19.604;2023-02-12T11:47:08;102165.44;;;20.66;31.53
28628;BME280;15815;46.760;19.604;2023-02-12T11:49:56;102163.22;;;19.37;31.67
28628;BME280;15815;46.760;19.604;2023-02-12T11:52:25;102171.72;;;18.93;32.91
28628;BME280;15815;46.760;19.604;2023-02-12T11:54:59;102158.72;;;18.92;31.52
28628;BME280;15815;46.760;19.604;2023-02-12T11:57:46;102161.97;;;18.94;31.96
28628;BME280;15815;46.760;19.604;2023-02-12T12:00:16;102172.69;;;18.61;32.16
28628;BME280;15815;46.760;19.604;2023-02-12T12:02:56;102167.28;;;18.01;32.86
28628;BME280;15815;46.760;19.604;2023-02-12T12:05:33;102148.69;;;17.25;33.86
28628;BME280;15815;46.760;19.604;2023-02-12T12:08:20;102151.03;;;16.62;34.47
28628;BME280;15815;46.760;19.604;2023-02-12T12:10:54;102156.38;;;16.71;34.47
28628;BME280;15815;46.760;19.604;2023-02-12T12:13:31;102163.78;;;16.03;35.25
28628;BME280;15815;46.760;19.604;2023-02-12T12:16:19;102151.44;;;15.63;35.72
28628;BME280;15815;46.760;19.604;2023-02-12T12:18:58;102143.50;;;14.88;37.17
28628;BME280;15815;46.760;19.604;2023-02-12T12:21:33;102149.13;;;14.84;37.00
28628;BME280;15815;46.760;19.604;2023-02-12T12:24:20;102160.50;;;14.91;37.29
28628;BME280;15815;46.760;19.604;2023-02-12T12:27:09;102145.13;;;14.51;37.87
28628;BME280;15815;46.760;19.604;2023-02-12T12:29:54;102156.97;;;14.61;38.33
28628;BME280;15815;46.760;19.604;2023-02-12T12:32:23;102155.41;;;14.33;38.89
28628;BME280;15815;46.760;19.604;2023-02-12T12:34:51;102152.03;;;13.90;39.37
28628;BME280;15815;46.760;19.604;2023-02-12T12:43:25;102157.84;;;13.71;39.88
28628;BME280;15815;46.760;19.604;2023-02-12T12:49:12;102149.94;;;13.57;39.23
28628;BME280;15815;46.760;19.604;2023-02-12T12:51:57;102131.47;;;13.64;39.54
28628;BME280;15815;46.760;19.604;2023-02-12T12:57:32;102163.69;;;14.15;39.44
28628;BME280;15815;46.760;19.604;2023-02-12T13:11:33;102160.34;;;13.50;40.14
28628;BME280;15815;46.760;19.604;2023-02-12T13:14:14;102158.38;;;13.27;40.84
28628;BME280;15815;46.760;19.604;2023-02-12T13:16:50;102163.78;;;13.66;39.99
28628;BME280;15815;46.760;19.604;2023-02-12T13:22:36;102149.72;;;12.94;40.64
28628;BME280;15815;46.760;19.604;2023-02-12T13:29:22;102174.28;;;12.51;41.78
28628;BME280;15815;46.760;19.604;2023-02-12T13:31:18;102144.78;;;12.45;41.67
28628;BME280;15815;46.760;19.604;2023-02-12T13:33:51;102166.88;;;12.85;40.66
28628;BME280;15815;46.760;19.604;2023-02-12T13:36:19;102162.78;;;12.83;40.81
28628;BME280;15815;46.760;19.604;2023-02-12T13:38:55;102179.16;;;12.74;40.72
28628;BME280;15815;46.760;19.604;2023-02-12T13:41:22;102165.09;;;12.54;41.16
28628;BME280;15815;46.760;19.604;2023-02-12T13:52:05;102163.19;;;12.39;41.63
28628;BME280;15815;46.760;19.604;2023-02-12T13:54:46;102167.63;;;12.01;42.46
28628;BME280;15815;46.760;19.604;2023-02-12T13:57:19;102152.63;;;11.97;42.77
28628;BME280;15815;46.760;19.604;2023-02-12T14:07:17;102154.75;;;12.85;41.57
28628;BME280;15815;46.760;19.604;2023-02-12T14:12:16;102159.31;;;12.47;42.47
28628;BME280;15815;46.760;19.604;2023-02-12T14:15:04;102171.59;;;12.58;42.35
28628;BME280;15815;46.760;19.604;2023-02-12T14:17:48;102146.91;;;12.32;42.17
28628;BME280;15815;46.760;19.604;2023-02-12T14:20:33;102168.06;;;12.42;42.16
28628;BME280;15815;46.760;19.604;2023-02-12T14:25:41;102174.75;;;12.15;42.44
28628;BME280;15815;46.760;19.604;2023-02-12T14:41:32;102169.19;;;11.48;43.95
28628;BME280;15815;46.760;19.604;2023-02-12T14:57:33;102183.47;;;10.76;45.90
28628;BME280;15815;46.760;19.604;2023-02-12T15:02:32;102173.38;;;10.32;46.76
28628;BME280;15815;46.760;19.604;2023-02-12T15:05:29;102178.28;;;10.35;47.23
28628;BME280;15815;46.760;19.604;2023-02-12T15:08:12;102164.88;;;10.16;47.00
28628;BME280;15815;46.760;19.604;2023-02-12T15:11:11;102173.44;;;10.07;47.73
28628;BME280;15815;46.760;19.604;2023-02-12T15:13:54;102160.72;;;9.85;47.64
28628;BME280;15815;46.760;19.604;2023-02-12T15:16:43;102167.22;;;9.74;48.05
28628;BME280;15815;46.760;19.604;2023-02-12T15:21:57;102168.31;;;9.45;48.41
28628;BME280;15815;46.760;19.604;2023-02-12T15:24:25;102182.44;;;9.48;48.77
28628;BME280;15815;46.760;19.604;2023-02-12T15:26:53;102173.94;;;9.33;48.75
28628;BME280;15815;46.760;19.604;2023-02-12T15:29:42;102181.84;;;9.30;49.61
28628;BME280;15815;46.760;19.604;2023-02-12T15:32:18;102182.22;;;9.17;49.77
28628;BME280;15815;46.760;19.604;2023-02-12T15:34:48;102173.31;;;8.90;49.97
28628;BME280;15815;46.760;19.604;2023-02-12T15:37:21;102188.97;;;8.91;49.93
28628;BME280;15815;46.760;19.604;2023-02-12T15:39:48;102184.41;;;8.87;50.55
28628;BME280;15815;46.760;19.604;2023-02-12T15:42:33;102188.69;;;8.72;51.15
28628;BME280;15815;46.760;19.604;2023-02-12T15:45:18;102183.28;;;8.55;50.99
28628;BME280;15815;46.760;19.604;2023-02-12T15:50:34;102176.50;;;8.02;51.54